createdAt,value
2023-03-29T00:00:22.341Z,9.16
2023-03-29T00:02:49.397Z,9.18
2023-03-29T00:05:19.818Z,8.14
2023-03-29T00:07:46.538Z,7.63
2023-03-29T00:10:13.250Z,7.77
2023-03-29T00:12:40.398Z,7.92
2023-03-29T00:15:08.944Z,8.16
2023-03-29T00:17:36.867Z,7.54
2023-03-29T00:20:07.120Z,7.49
2023-03-29T00:22:34.580Z,7.43
2023-03-29T00:25:01.707Z,7.36
2023-03-29T00:27:28.718Z,7.85
2023-03-29T00:29:58.179Z,7.99
2023-03-29T00:32:25.204Z,8.40
2023-03-29T00:34:54.737Z,7.59
2023-03-29T00:37:22.951Z,7.84
2023-03-29T00:39:50.013Z,8.44
2023-03-29T00:42:17.242Z,8.36
2023-03-29T00:45:15.201Z,8.59
2023-03-29T00:47:44.024Z,8.79
2023-03-29T00:50:15.283Z,8.81
2023-03-29T00:52:43.523Z,8.40
2023-03-29T00:55:14.581Z,8.37
2023-03-29T00:57:42.304Z,8.26
2023-03-29T01:00:09.416Z,9.04
2023-03-29T01:02:36.736Z,8.98
2023-03-29T01:05:12.243Z,8.94
2023-03-29T01:07:43.139Z,9.16
2023-03-29T01:10:15.984Z,8.86
2023-03-29T01:12:50.263Z,8.59
2023-03-29T01:15:22.830Z,8.52
2023-03-29T01:17:49.597Z,8.22
2023-03-29T01:20:38.124Z,8.37
2023-03-29T01:23:23.313Z,8.07
2023-03-29T01:26:15.033Z,7.66
2023-03-29T01:28:47.381Z,7.33
2023-03-29T01:31:18.639Z,7.70
2023-03-29T01:33:49.628Z,7.33
2023-03-29T01:36:35.749Z,7.82
2023-03-29T01:39:06.183Z,7.67
2023-03-29T01:41:54.045Z,7.53
2023-03-29T01:44:38.193Z,7.50
2023-03-29T01:47:13.002Z,7.67
2023-03-29T01:49:49.225Z,8.32
2023-03-29T01:52:18.956Z,7.96
2023-03-29T01:54:50.315Z,7.42
2023-03-29T01:57:17.482Z,7.56
2023-03-29T01:59:44.232Z,8.08
2023-03-29T02:02:14.947Z,8.23
2023-03-29T02:04:47.369Z,8.05
2023-03-29T02:07:14.447Z,7.91
2023-03-29T02:09:41.126Z,8.38
2023-03-29T02:12:08.360Z,8.52
2023-03-29T02:14:36.413Z,8.02
2023-03-29T02:17:20.261Z,8.23
2023-03-29T02:19:48.844Z,8.26
2023-03-29T02:22:16.076Z,8.94
2023-03-29T02:24:42.864Z,8.38
2023-03-29T02:27:09.896Z,8.10
2023-03-29T02:29:37.713Z,8.41
2023-03-29T02:32:15.852Z,8.02
2023-03-29T02:34:46.598Z,8.30
2023-03-29T02:37:14.848Z,7.90
2023-03-29T02:39:41.645Z,8.22
2023-03-29T02:42:11.360Z,8.69
2023-03-29T02:44:39.582Z,7.92
2023-03-29T02:47:08.889Z,7.85
2023-03-29T02:49:36.598Z,8.37
2023-03-29T02:52:08.984Z,8.42
2023-03-29T02:54:36.080Z,8.61
2023-03-29T02:57:04.109Z,7.86
2023-03-29T02:59:32.011Z,8.14
2023-03-29T03:01:59.051Z,8.82
2023-03-29T03:04:28.877Z,8.56
2023-03-29T03:06:55.961Z,9.04
2023-03-29T03:09:22.898Z,8.87
2023-03-29T03:11:49.969Z,8.19
2023-03-29T03:14:16.992Z,8.32
2023-03-29T03:16:44.559Z,8.27
2023-03-29T03:19:12.914Z,8.49
2023-03-29T03:21:41.163Z,7.96
2023-03-29T03:24:10.625Z,7.86
2023-03-29T03:26:37.643Z,8.24
2023-03-29T03:29:07.179Z,8.29
2023-03-29T03:31:36.734Z,8.73
2023-03-29T03:34:03.452Z,9.41
2023-03-29T03:36:30.543Z,9.50
2023-03-29T03:39:00.304Z,8.03
2023-03-29T03:41:27.104Z,8.15
2023-03-29T03:43:55.110Z,8.48
2023-03-29T03:46:21.868Z,8.87
2023-03-29T03:48:48.650Z,8.38
2023-03-29T03:51:15.353Z,8.03
2023-03-29T03:53:42.105Z,8.03
2023-03-29T03:56:09.696Z,8.44
2023-03-29T03:58:39.615Z,8.44
2023-03-29T04:01:07.411Z,8.85
2023-03-29T04:03:35.812Z,9.53
2023-03-29T04:06:05.775Z,9.67
2023-03-29T04:08:33.518Z,9.58
2023-03-29T04:11:03.333Z,9.37
2023-03-29T04:13:31.711Z,9.35
2023-03-29T04:16:01.413Z,9.09
2023-03-29T04:18:31.410Z,9.47
2023-03-29T04:20:58.747Z,9.66
2023-03-29T04:23:26.516Z,8.86
2023-03-29T04:25:57.745Z,8.51
2023-03-29T04:28:24.824Z,8.55
2023-03-29T04:30:51.973Z,8.43
2023-03-29T04:33:19.057Z,8.81
2023-03-29T04:35:47.176Z,8.47
2023-03-29T04:38:14.621Z,8.85
2023-03-29T04:40:42.731Z,8.87
2023-03-29T04:43:09.517Z,9.02
2023-03-29T04:45:39.018Z,8.87
2023-03-29T04:48:06.181Z,9.02
2023-03-29T04:50:33.797Z,8.41
2023-03-29T04:53:00.997Z,7.98
2023-03-29T04:55:28.166Z,7.69
2023-03-29T04:57:55.252Z,7.56
2023-03-29T05:00:24.981Z,7.66
2023-03-29T05:02:52.318Z,7.57
2023-03-29T05:05:19.568Z,7.77
2023-03-29T05:07:47.461Z,8.24
2023-03-29T05:10:14.187Z,8.45
2023-03-29T05:12:41.278Z,8.57
2023-03-29T05:15:09.785Z,8.47
2023-03-29T05:17:36.520Z,8.26
2023-03-29T05:20:03.328Z,8.02
2023-03-29T05:22:32.648Z,8.13
2023-03-29T05:24:59.672Z,8.47
2023-03-29T05:27:29.229Z,8.09
2023-03-29T05:29:56.527Z,7.97
2023-03-29T05:32:23.364Z,8.45
2023-03-29T05:34:50.420Z,8.82
2023-03-29T05:37:17.480Z,8.55
2023-03-29T05:39:44.468Z,8.55
2023-03-29T05:42:12.822Z,8.80
2023-03-29T05:44:40.109Z,8.61
2023-03-29T05:47:06.842Z,8.59
2023-03-29T05:49:33.744Z,9.14
2023-03-29T05:52:00.838Z,8.98
2023-03-29T05:54:27.897Z,8.82
2023-03-29T05:56:54.948Z,9.16
2023-03-29T05:59:24.617Z,9.47
2023-03-29T06:01:51.709Z,9.85
2023-03-29T06:04:18.516Z,9.06
2023-03-29T06:06:45.624Z,8.89
2023-03-29T06:09:12.674Z,9.27
2023-03-29T06:11:39.789Z,9.70
2023-03-29T06:14:07.032Z,9.89
2023-03-29T06:16:34.090Z,10.36
2023-03-29T06:19:03.596Z,10.50
2023-03-29T06:21:30.768Z,10.33
2023-03-29T06:24:00.349Z,10.50
2023-03-29T06:26:27.209Z,10.47
2023-03-29T06:28:54.075Z,10.85
2023-03-29T06:31:20.844Z,10.67
2023-03-29T06:33:47.963Z,10.98
2023-03-29T06:36:17.596Z,10.06
2023-03-29T06:38:44.691Z,10.61
2023-03-29T06:41:11.443Z,10.82
2023-03-29T06:43:41.607Z,10.91
2023-03-29T06:46:08.629Z,11.38
2023-03-29T06:48:36.653Z,11.48
2023-03-29T06:51:04.268Z,11.27
2023-03-29T06:53:34.501Z,11.76
2023-03-29T06:56:01.611Z,11.84
2023-03-29T06:58:28.691Z,10.81
2023-03-29T07:01:02.568Z,11.10
2023-03-29T07:03:29.758Z,10.68
2023-03-29T07:06:03.366Z,10.39
2023-03-29T07:08:30.533Z,10.55
2023-03-29T07:10:57.335Z,11.28
2023-03-29T07:13:24.016Z,11.44
2023-03-29T07:15:51.342Z,11.60
2023-03-29T07:18:18.482Z,11.39
2023-03-29T07:20:45.289Z,11.54
2023-03-29T07:23:12.322Z,11.70
2023-03-29T07:25:39.085Z,11.72
2023-03-29T07:28:06.210Z,12.17
2023-03-29T07:30:34.076Z,11.35
2023-03-29T07:33:01.911Z,11.16
2023-03-29T07:35:29.112Z,10.40
2023-03-29T07:38:14.718Z,11.07
2023-03-29T07:40:42.245Z,11.54
2023-03-29T07:43:09.006Z,11.27
2023-03-29T07:45:38.814Z,10.80
2023-03-29T07:48:06.952Z,10.95
2023-03-29T07:50:34.871Z,11.20
2023-03-29T07:53:01.921Z,11.02
2023-03-29T07:55:29.052Z,12.06
2023-03-29T07:57:56.407Z,11.87
2023-03-29T08:00:23.308Z,11.87
2023-03-29T08:02:51.022Z,12.11
2023-03-29T08:05:26.036Z,12.23
2023-03-29T08:07:56.300Z,11.70
2023-03-29T08:10:26.002Z,11.56
2023-03-29T08:12:52.856Z,12.02
2023-03-29T08:15:20.104Z,12.26
2023-03-29T08:17:47.666Z,12.18
2023-03-29T08:20:15.167Z,12.54
2023-03-29T08:22:44.716Z,12.20
2023-03-29T08:25:11.558Z,12.18
2023-03-29T08:27:38.864Z,12.18
2023-03-29T08:30:06.497Z,12.57
2023-03-29T08:32:33.836Z,12.91
2023-03-29T08:35:06.346Z,13.01
2023-03-29T08:37:33.513Z,13.16
2023-03-29T08:40:00.902Z,13.47
2023-03-29T08:43:12.533Z,13.33
2023-03-29T08:46:13.895Z,13.40
2023-03-29T08:48:50.090Z,13.88
2023-03-29T08:51:27.856Z,12.53
2023-03-29T08:54:25.970Z,12.79
2023-03-29T08:56:53.208Z,13.29
2023-03-29T08:59:39.739Z,13.22
2023-03-29T09:02:12.781Z,13.69
2023-03-29T09:04:42.734Z,13.79
2023-03-29T09:07:10.045Z,13.49
2023-03-29T09:09:36.813Z,13.41
2023-03-29T09:12:21.937Z,13.37
2023-03-29T09:14:51.492Z,13.48
2023-03-29T09:17:39.317Z,13.36
2023-03-29T09:20:57.515Z,13.11
2023-03-29T09:23:43.641Z,13.34
2023-03-29T09:26:13.595Z,13.54
2023-03-29T09:29:18.776Z,13.54
2023-03-29T09:31:46.075Z,13.39
2023-03-29T09:34:30.713Z,13.75
2023-03-29T09:37:04.322Z,13.56
2023-03-29T09:39:33.853Z,14.21
2023-03-29T09:42:03.228Z,14.12
2023-03-29T09:44:38.761Z,13.72
2023-03-29T09:47:20.520Z,13.87
2023-03-29T09:49:49.269Z,14.13
2023-03-29T09:52:16.467Z,13.82
2023-03-29T09:54:43.650Z,13.85
2023-03-29T09:57:12.060Z,14.09
2023-03-29T09:59:39.528Z,13.74
2023-03-29T10:02:13.130Z,13.47
2023-03-29T10:04:40.401Z,14.25
2023-03-29T10:07:07.175Z,13.80
2023-03-29T10:09:34.758Z,13.18
2023-03-29T10:12:02.193Z,13.70
2023-03-29T10:14:44.020Z,13.66
2023-03-29T10:17:26.054Z,13.82
2023-03-29T10:19:56.637Z,14.05
2023-03-29T10:22:32.318Z,15.07
2023-03-29T10:24:59.470Z,14.22
2023-03-29T10:27:27.542Z,14.44
2023-03-29T10:29:54.334Z,13.97
2023-03-29T10:32:34.777Z,14.63
2023-03-29T10:35:22.881Z,14.68
2023-03-29T10:37:53.483Z,14.72
2023-03-29T10:40:31.365Z,14.96
2023-03-29T10:43:01.908Z,14.24
2023-03-29T10:45:30.581Z,14.47
2023-03-29T10:47:58.464Z,15.21
2023-03-29T10:50:27.332Z,14.80
2023-03-29T10:52:54.920Z,14.03
2023-03-29T10:55:22.708Z,14.07
2023-03-29T10:58:04.472Z,13.45
2023-03-29T11:00:49.107Z,12.73
2023-03-29T11:03:17.032Z,12.96
2023-03-29T11:06:03.792Z,13.62
2023-03-29T11:08:43.549Z,12.53
2023-03-29T11:11:22.967Z,12.36
2023-03-29T11:13:58.064Z,12.95
2023-03-29T11:16:37.175Z,12.86
2023-03-29T11:19:47.501Z,12.12
2023-03-29T11:22:25.905Z,12.68
2023-03-29T11:25:29.108Z,13.02
2023-03-29T11:28:06.220Z,13.25
2023-03-29T11:31:13.082Z,12.59
2023-03-29T11:33:58.365Z,13.10
2023-03-29T11:36:46.056Z,14.12
2023-03-29T11:39:29.903Z,14.23
2023-03-29T11:42:06.443Z,14.27
2023-03-29T11:44:34.069Z,14.13
2023-03-29T11:47:15.810Z,13.74
2023-03-29T11:50:01.471Z,14.80
2023-03-29T11:52:47.175Z,14.16
2023-03-29T11:55:24.907Z,14.64
2023-03-29T11:58:06.370Z,14.63
2023-03-29T12:00:39.044Z,14.96
2023-03-29T12:03:34.758Z,14.95
2023-03-29T12:06:44.684Z,14.41
2023-03-29T12:09:39.684Z,14.23
2023-03-29T12:12:17.658Z,14.28
2023-03-29T12:15:07.062Z,14.71
2023-03-29T12:17:45.743Z,15.11
2023-03-29T12:20:22.850Z,14.61
2023-03-29T12:22:53.097Z,14.57
2023-03-29T12:25:24.138Z,15.05
2023-03-29T12:28:10.501Z,14.94
2023-03-29T12:31:07.784Z,14.90
2023-03-29T12:33:57.506Z,15.41
2023-03-29T12:36:43.768Z,15.25
2023-03-29T12:39:18.508Z,15.13
2023-03-29T12:41:45.251Z,15.63
2023-03-29T12:44:16.947Z,16.53
2023-03-29T12:47:05.146Z,15.91
2023-03-29T12:49:44.889Z,16.03
2023-03-29T12:52:29.851Z,16.22
2023-03-29T12:54:58.832Z,16.04
2023-03-29T12:57:58.714Z,15.94
2023-03-29T13:00:51.464Z,16.46
2023-03-29T13:03:29.898Z,17.15
2023-03-29T13:06:04.674Z,17.58
2023-03-29T13:08:42.950Z,17.38
2023-03-29T13:11:12.756Z,16.96
2023-03-29T13:13:40.901Z,17.87
2023-03-29T13:16:18.866Z,18.21
2023-03-29T13:18:52.283Z,18.09
2023-03-29T13:21:23.478Z,17.34
2023-03-29T13:24:17.463Z,18.01
2023-03-29T13:27:25.483Z,17.52
2023-03-29T13:30:01.611Z,16.61
2023-03-29T13:32:32.522Z,16.61
2023-03-29T13:35:05.262Z,16.45
2023-03-29T13:37:54.513Z,16.75
2023-03-29T13:40:35.675Z,17.37
2023-03-29T13:43:22.391Z,17.69
2023-03-29T13:45:59.529Z,18.25
2023-03-29T13:48:32.976Z,17.79
2023-03-29T13:51:05.451Z,18.30
2023-03-29T13:53:53.508Z,17.50
2023-03-29T13:56:34.865Z,17.80
2023-03-29T13:59:06.103Z,17.57
2023-03-29T14:01:39.979Z,18.32
2023-03-29T14:04:10.852Z,18.76
2023-03-29T14:06:44.951Z,19.50
2023-03-29T14:09:12.458Z,19.82
2023-03-29T14:11:40.667Z,18.84
2023-03-29T14:14:10.808Z,19.13
2023-03-29T14:16:40.480Z,19.10
2023-03-29T14:19:16.457Z,18.38
2023-03-29T14:21:46.984Z,18.79
2023-03-29T14:24:19.127Z,19.10
2023-03-29T14:26:46.738Z,19.75
2023-03-29T14:29:13.565Z,20.23
2023-03-29T14:31:43.880Z,20.33
2023-03-29T14:34:18.608Z,19.79
2023-03-29T14:36:47.346Z,18.45
2023-03-29T14:39:21.412Z,18.97
2023-03-29T14:41:57.203Z,19.39
2023-03-29T14:44:27.190Z,18.99
2023-03-29T14:46:58.129Z,19.38
2023-03-29T14:49:25.895Z,19.55
2023-03-29T14:52:04.374Z,19.13
2023-03-29T14:54:33.082Z,19.08
2023-03-29T14:57:08.919Z,19.35
2023-03-29T14:59:41.929Z,19.44
2023-03-29T15:02:39.023Z,19.71
2023-03-29T15:05:20.486Z,19.52
2023-03-29T15:07:48.800Z,19.49
2023-03-29T15:10:19.540Z,19.20
2023-03-29T15:12:46.274Z,19.69
2023-03-29T15:15:15.371Z,19.23
2023-03-29T15:17:51.622Z,19.62
2023-03-29T15:20:26.483Z,18.90
2023-03-29T15:23:02.901Z,18.99
2023-03-29T15:28:28.801Z,20.15
2023-03-29T15:31:10.413Z,19.55
2023-03-29T15:33:40.507Z,19.79
2023-03-29T15:36:08.595Z,19.89
2023-03-29T15:38:44.009Z,20.06
2023-03-29T15:41:20.834Z,19.97
2023-03-29T15:43:48.265Z,19.51
2023-03-29T15:46:16.722Z,19.16
2023-03-29T15:48:44.430Z,18.49
2023-03-29T15:51:12.631Z,17.44
2023-03-29T15:53:39.952Z,17.68
2023-03-29T15:56:08.997Z,17.72
2023-03-29T15:58:36.418Z,18.08
2023-03-29T16:01:21.829Z,17.94
2023-03-29T16:03:49.400Z,18.53
2023-03-29T16:06:17.622Z,19.01
2023-03-29T16:08:44.567Z,19.45
2023-03-29T16:11:12.080Z,19.48
2023-03-29T16:13:42.597Z,19.60
2023-03-29T16:16:19.342Z,19.13
2023-03-29T16:19:00.721Z,19.42
2023-03-29T16:21:45.526Z,19.53
2023-03-29T16:24:14.531Z,19.78
2023-03-29T16:26:43.087Z,19.19
2023-03-29T16:29:17.423Z,19.34
2023-03-29T16:31:45.742Z,19.24
2023-03-29T16:34:13.413Z,18.22
2023-03-29T16:36:40.447Z,17.50
2023-03-29T16:39:07.198Z,17.86
2023-03-29T16:41:37.766Z,17.65
2023-03-29T16:44:05.378Z,17.98
2023-03-29T16:46:35.753Z,17.09
2023-03-29T16:49:03.438Z,16.86
2023-03-29T16:51:37.773Z,16.98
2023-03-29T16:54:04.938Z,17.06
2023-03-29T16:56:31.790Z,16.86
2023-03-29T16:58:58.584Z,16.98
2023-03-29T17:01:26.235Z,16.45
2023-03-29T17:03:55.024Z,16.29
2023-03-29T17:06:23.630Z,15.97
2023-03-29T17:08:50.731Z,15.59
2023-03-29T17:11:18.116Z,15.25
2023-03-29T17:13:44.862Z,15.50
2023-03-29T17:16:12.688Z,15.44
2023-03-29T17:18:40.116Z,16.18
2023-03-29T17:21:08.169Z,16.20
2023-03-29T17:23:35.373Z,16.05
2023-03-29T17:26:02.871Z,15.56
2023-03-29T17:28:30.749Z,15.20
2023-03-29T17:30:57.534Z,15.26
2023-03-29T17:33:26.128Z,16.34
2023-03-29T17:35:54.445Z,15.41
2023-03-29T17:38:22.944Z,15.01
2023-03-29T17:40:53.599Z,15.01
2023-03-29T17:43:23.231Z,15.10
2023-03-29T17:45:54.126Z,15.37
2023-03-29T17:48:21.125Z,15.40
2023-03-29T17:50:48.669Z,15.19
2023-03-29T17:53:16.142Z,15.16
2023-03-29T17:55:45.452Z,14.69
2023-03-29T17:58:15.127Z,15.20
2023-03-29T18:00:42.724Z,15.95
2023-03-29T18:03:13.475Z,15.62
2023-03-29T18:05:40.518Z,15.48
2023-03-29T18:08:11.940Z,14.94
2023-03-29T18:10:39.555Z,14.60
2023-03-29T18:13:06.456Z,14.27
2023-03-29T18:15:35.445Z,14.18
2023-03-29T18:18:02.384Z,14.22
2023-03-29T18:20:32.538Z,14.34
2023-03-29T18:23:02.871Z,14.11
2023-03-29T18:25:30.466Z,13.84
2023-03-29T18:27:57.275Z,13.78
2023-03-29T18:30:23.961Z,14.01
2023-03-29T18:32:51.110Z,14.40
2023-03-29T18:35:18.101Z,14.40
2023-03-29T18:37:48.152Z,14.73
2023-03-29T18:40:22.095Z,14.06
2023-03-29T18:42:49.537Z,13.85
2023-03-29T18:45:16.322Z,13.89
2023-03-29T18:47:43.078Z,14.24
2023-03-29T18:50:12.077Z,14.27
2023-03-29T18:52:42.466Z,14.28
2023-03-29T18:55:16.565Z,14.69
2023-03-29T18:57:43.928Z,14.74
2023-03-29T19:00:13.519Z,15.62
2023-03-29T19:02:43.263Z,15.99
2023-03-29T19:05:13.757Z,14.58
2023-03-29T19:07:40.731Z,14.85
2023-03-29T19:10:07.943Z,15.45
2023-03-29T19:12:34.699Z,15.26
2023-03-29T19:15:01.504Z,13.98
2023-03-29T19:17:29.670Z,13.89
2023-03-29T19:20:01.057Z,13.78
2023-03-29T19:22:28.604Z,13.69
2023-03-29T19:24:55.731Z,13.61
2023-03-29T19:27:22.494Z,13.50
2023-03-29T19:29:49.740Z,13.74
2023-03-29T19:32:19.305Z,13.31
2023-03-29T19:34:53.905Z,13.89
2023-03-29T19:37:22.642Z,14.55
2023-03-29T19:39:49.414Z,13.87
2023-03-29T19:42:16.520Z,13.16
2023-03-29T19:44:44.827Z,13.09
2023-03-29T19:47:12.817Z,13.20
2023-03-29T19:49:40.361Z,13.35
2023-03-29T19:52:07.120Z,13.27
2023-03-29T19:54:35.020Z,13.26
2023-03-29T19:57:01.875Z,13.20
2023-03-29T19:59:29.374Z,13.21
2023-03-29T20:01:56.851Z,13.19
2023-03-29T20:04:23.729Z,13.22
2023-03-29T20:06:51.296Z,13.26
2023-03-29T20:09:18.258Z,13.13
2023-03-29T20:11:45.247Z,13.15
2023-03-29T20:14:14.781Z,13.20
2023-03-29T20:16:41.990Z,13.26
2023-03-29T20:19:09.197Z,13.35
2023-03-29T20:21:35.910Z,13.38
2023-03-29T20:24:02.907Z,13.42
2023-03-29T20:26:29.922Z,13.29
2023-03-29T20:28:56.948Z,13.29
2023-03-29T20:31:29.945Z,13.15
2023-03-29T20:33:57.820Z,13.19
2023-03-29T20:36:25.518Z,13.41
2023-03-29T20:38:52.494Z,13.39
2023-03-29T20:41:19.675Z,13.39
2023-03-29T20:43:48.707Z,13.27
2023-03-29T20:46:16.456Z,13.13
2023-03-29T20:48:43.342Z,13.07
2023-03-29T20:51:10.879Z,13.09
2023-03-29T20:53:38.205Z,13.12
2023-03-29T20:56:05.365Z,13.01
2023-03-29T20:58:32.495Z,13.11
2023-03-29T21:00:59.282Z,13.78
2023-03-29T21:03:26.243Z,14.00
2023-03-29T21:05:57.786Z,13.18
2023-03-29T21:08:32.862Z,13.80
2023-03-29T21:10:59.903Z,13.37
2023-03-29T21:13:29.616Z,12.89
2023-03-29T21:15:56.381Z,13.08
2023-03-29T21:18:23.892Z,13.04
2023-03-29T21:20:50.632Z,13.06
2023-03-29T21:23:20.270Z,12.90
2023-03-29T21:25:47.204Z,12.78
2023-03-29T21:28:14.317Z,12.76
2023-03-29T21:30:41.368Z,12.81
2023-03-29T21:33:10.984Z,12.92
2023-03-29T21:35:38.157Z,12.99
2023-03-29T21:38:05.341Z,13.14
2023-03-29T21:40:31.989Z,13.24
2023-03-29T21:42:59.026Z,13.53
2023-03-29T21:45:25.792Z,14.00
2023-03-29T21:47:53.555Z,13.67
2023-03-29T21:50:21.615Z,13.58
2023-03-29T21:52:48.341Z,13.46
2023-03-29T21:55:15.138Z,13.34
2023-03-29T21:57:42.317Z,13.26
2023-03-29T22:00:09.901Z,13.35
2023-03-29T22:02:37.449Z,13.88
2023-03-29T22:05:05.016Z,14.52
2023-03-29T22:07:31.850Z,14.98
2023-03-29T22:10:00.697Z,13.98
2023-03-29T22:12:27.873Z,13.70
2023-03-29T22:14:54.605Z,13.54
2023-03-29T22:17:21.627Z,14.23
2023-03-29T22:19:51.189Z,14.09
2023-03-29T22:22:18.664Z,14.08
2023-03-29T22:24:48.299Z,14.52
2023-03-29T22:27:15.400Z,14.63
2023-03-29T22:29:42.130Z,15.14
2023-03-29T22:32:09.254Z,15.03
2023-03-29T22:34:37.177Z,14.90
2023-03-29T22:37:04.172Z,15.31
2023-03-29T22:39:31.297Z,15.57
2023-03-29T22:41:58.449Z,14.26
2023-03-29T22:44:25.160Z,14.02
2023-03-29T22:46:52.018Z,14.67
2023-03-29T22:49:19.004Z,14.75
2023-03-29T22:51:48.455Z,13.99
2023-03-29T22:54:15.489Z,13.57
2023-03-29T22:56:42.613Z,13.83
2023-03-29T22:59:09.809Z,13.72
2023-03-29T23:01:39.670Z,13.83
2023-03-29T23:04:07.601Z,13.59
2023-03-29T23:06:34.715Z,13.47
2023-03-29T23:09:04.449Z,13.55
2023-03-29T23:11:31.529Z,13.77
2023-03-29T23:13:58.632Z,14.09
2023-03-29T23:16:26.554Z,14.53
2023-03-29T23:18:55.665Z,14.83
2023-03-29T23:21:23.909Z,14.19
2023-03-29T23:23:51.825Z,13.73
2023-03-29T23:26:20.020Z,13.45
2023-03-29T23:28:46.763Z,13.69
2023-03-29T23:31:14.390Z,13.69
2023-03-29T23:33:41.744Z,13.88
2023-03-29T23:36:10.575Z,13.91
2023-03-29T23:38:38.021Z,14.34
2023-03-29T23:41:07.283Z,14.38
2023-03-29T23:43:38.926Z,14.04
2023-03-29T23:46:06.996Z,13.89
2023-03-29T23:48:33.774Z,14.34
2023-03-29T23:51:02.620Z,14.44
2023-03-29T23:53:29.843Z,14.17
2023-03-29T23:55:57.612Z,13.37
2023-03-29T23:58:24.513Z,13.34
